Time;durP1;ratioP1;P1;durP2;ratioP2;P2;SDS_P1;SDS_P2;PMS_P1;PMS_P2;Temp;Humidity;BMP_temperature;BMP_pressure;BME280_temperature;BME280_humidity;BME280_pressure;Samples;Min_cycle;Max_cycle;Signal;HPM_P1;HPM_P2
2023/06/19 00:02:22;;;;;;;0.10;0.10;;;15.80;99.90;;;;;;5067313;28;20597;-80
2023/06/19 00:04:57;;;;;;;0.15;0.15;;;13.20;99.90;;;;;;5070593;28;20463;-80
2023/06/19 00:07:22;;;;;;;0.10;0.10;;;13.20;99.90;;;;;;5069182;28;20226;-81
2023/06/19 00:09:53;;;;;;;0.95;0.95;;;13.20;99.90;;;;;;5067969;28;20028;-88
2023/06/19 00:12:32;;;;;;;0.10;0.10;;;13.20;99.90;;;;;;5052984;28;20048;-80
2023/06/19 00:14:57;;;;;;;0.10;0.10;;;13.20;99.90;;;;;;5071914;28;20039;-85
2023/06/19 00:17:26;;;;;;;0.13;0.13;;;13.20;99.90;;;;;;5065660;28;20028;-88
2023/06/19 00:19:52;;;;;;;0.13;0.13;;;13.20;99.90;;;;;;5063978;28;20391;-81
2023/06/19 00:22:18;;;;;;;0.17;0.17;;;13.10;99.90;;;;;;5065065;28;20024;-89
2023/06/19 00:24:45;;;;;;;0.20;0.20;;;13.10;99.90;;;;;;5048365;28;20043;-89
2023/06/19 00:27:11;;;;;;;1.27;1.08;;;12.80;99.90;;;;;;5065151;28;20552;-80
2023/06/19 00:29:37;;;;;;;0.10;0.10;;;13.10;99.90;;;;;;5065489;28;20029;-84
2023/06/19 00:32:12;;;;;;;0.10;0.10;;;13.10;99.90;;;;;;5065359;28;20044;-84
2023/06/19 00:34:38;;;;;;;0.20;0.20;;;13.10;99.90;;;;;;5072287;28;20090;-85
2023/06/19 00:37:04;;;;;;;0.20;0.20;;;13.20;99.90;;;;;;5071284;28;20032;-86
2023/06/19 00:39:30;;;;;;;2.47;2.38;;;13.20;99.90;;;;;;5074805;28;20029;-83
2023/06/19 00:41:56;;;;;;;0.10;0.10;;;13.10;99.90;;;;;;5070081;28;20175;-90
2023/06/19 00:44:29;;;;;;;0.10;0.10;;;13.00;99.90;;;;;;5069023;28;20070;-84
2023/06/19 00:47:00;;;;;;;0.10;0.10;;;13.10;99.90;;;;;;5065654;28;20200;-79
2023/06/19 00:49:27;;;;;;;0.20;0.20;;;13.00;99.90;;;;;;5051143;28;20108;-77
2023/06/19 00:51:59;;;;;;;0.15;0.15;;;13.00;99.90;;;;;;5069690;28;20025;-85
2023/06/19 00:54:25;;;;;;;0.13;0.13;;;13.00;99.90;;;;;;5068723;28;20059;-77
2023/06/19 00:56:52;;;;;;;0.10;0.10;;;12.90;99.90;;;;;;5074189;28;20070;-86
2023/06/19 00:59:23;;;;;;;0.10;0.10;;;12.80;99.90;;;;;;5059562;28;20392;-78
2023/06/19 01:01:52;;;;;;;0.47;0.45;;;12.80;99.90;;;;;;5081511;28;20033;-82
2023/06/19 01:04:25;;;;;;;0.10;0.10;;;12.70;99.90;;;;;;5082044;28;20021;-82
2023/06/19 01:06:59;;;;;;;0.10;0.10;;;12.70;99.90;;;;;;5077854;28;20039;-83
2023/06/19 01:09:33;;;;;;;;;;;12.70;99.90;;;;;;5075692;28;20005;-79
2023/06/19 01:12:19;;;;;;;0.10;0.10;;;12.60;99.90;;;;;;5067900;28;19908;-83
2023/06/19 01:15:13;;;;;;;0.10;0.10;;;12.60;99.90;;;;;;5066227;28;20264;-80
2023/06/19 01:17:40;;;;;;;0.10;0.10;;;12.60;99.90;;;;;;5073944;28;20032;-82
2023/06/19 01:20:10;;;;;;;0.10;0.10;;;12.60;99.90;;;;;;5067707;28;20041;-78
2023/06/19 01:22:43;;;;;;;0.10;0.10;;;12.50;99.90;;;;;;5066320;28;20107;-77
2023/06/19 01:25:15;;;;;;;0.10;0.10;;;12.50;99.90;;;;;;5074017;28;20064;-77
2023/06/19 01:27:42;;;;;;;0.20;0.20;;;12.50;99.90;;;;;;5075218;28;20393;-77
2023/06/19 01:30:32;;;;;;;3.03;2.83;;;12.40;99.90;;;;;;5085246;28;20096;-76
2023/06/19 01:33:23;;;;;;;0.10;0.10;;;12.40;99.90;;;;;;5097209;28;20019;-77
2023/06/19 01:36:10;;;;;;;0.10;0.10;;;12.30;99.90;;;;;;5094492;28;20001;-76
2023/06/19 01:38:42;;;;;;;0.10;0.10;;;12.30;99.90;;;;;;5096091;28;20055;-76
2023/06/19 01:41:33;;;;;;;0.20;0.20;;;12.30;99.90;;;;;;5095024;28;20033;-77
2023/06/19 01:44:00;;;;;;;0.10;0.10;;;9.90;99.90;;;;;;5069113;28;20619;-77
2023/06/19 01:46:26;;;;;;;0.10;0.10;;;12.20;99.90;;;;;;5053236;28;20027;-78
2023/06/19 01:48:53;;;;;;;0.10;0.10;;;12.20;99.90;;;;;;5071327;28;20085;-77
2023/06/19 01:51:41;;;;;;;0.10;0.10;;;12.20;99.90;;;;;;5072653;28;20033;-78
2023/06/19 01:54:23;;;;;;;0.30;0.30;;;12.10;99.90;;;;;;5095646;28;20077;-76
2023/06/19 01:56:52;;;;;;;0.10;0.10;;;11.20;99.90;;;;;;5077865;28;20020;-76
2023/06/19 01:59:41;;;;;;;0.10;0.10;;;12.10;99.90;;;;;;5078795;28;20048;-76
2023/06/19 02:02:07;;;;;;;0.10;0.10;;;12.10;99.90;;;;;;5069769;28;20470;-77
2023/06/19 02:04:34;;;;;;;0.10;0.10;;;12.10;99.90;;;;;;5067847;28;20118;-77
2023/06/19 02:07:00;;;;;;;0.10;0.10;;;12.10;99.90;;;;;;5067243;28;20029;-77
2023/06/19 02:09:27;;;;;;;0.10;0.10;;;;;;;;;;5068204;28;20020;-78
2023/06/19 02:11:54;;;;;;;0.10;0.10;;;12.00;99.90;;;;;;5067803;28;20028;-77
2023/06/19 02:14:19;;;;;;;0.10;0.10;;;10.40;99.90;;;;;;5064477;28;20282;-77
2023/06/19 02:17:25;;;;;;;0.10;0.10;;;12.00;99.90;;;;;;5073479;28;20038;-77
2023/06/19 02:19:52;;;;;;;0.20;0.20;;;11.90;99.90;;;;;;5048197;28;20126;-77
2023/06/19 02:22:18;;;;;;;0.10;0.10;;;14.10;99.90;;;;;;5030381;28;20402;-77
2023/06/19 02:24:57;;;;;;;0.20;0.20;;;11.90;99.90;;;;;;5056043;28;20025;-77
2023/06/19 02:27:28;;;;;;;0.08;0.08;;;11.90;99.90;;;;;;5046516;28;20041;-78
2023/06/19 02:29:56;;;;;;;0.10;0.10;;;11.90;99.90;;;;;;5026636;28;20463;-77
2023/06/19 02:32:22;;;;;;;3.55;3.30;;;11.90;99.90;;;;;;5051984;28;20029;-77
2023/06/19 02:34:49;;;;;;;0.10;0.10;;;;;;;;;;5074659;28;20035;-77
2023/06/19 02:37:16;;;;;;;0.10;0.10;;;11.90;99.90;;;;;;5071284;28;20002;-76
2023/06/19 02:40:06;;;;;;;0.10;0.10;;;11.90;99.90;;;;;;5056501;28;20013;-77
2023/06/19 02:42:41;;;;;;;0.20;0.20;;;11.90;99.90;;;;;;5074633;28;20017;-77
2023/06/19 02:45:19;;;;;;;0.10;0.10;;;11.80;99.90;;;;;;5074371;28;20005;-76
2023/06/19 02:47:44;;;;;;;0.20;0.20;;;11.80;99.90;;;;;;5058775;28;20674;-77
2023/06/19 02:50:26;;;;;;;18.00;16.65;;;11.80;99.90;;;;;;5075518;28;20041;-77
2023/06/19 02:52:52;;;;;;;0.10;0.10;;;11.80;99.90;;;;;;5049163;28;20717;-79
2023/06/19 02:55:18;;;;;;;0.10;0.10;;;11.80;99.90;;;;;;5045868;28;20020;-77
2023/06/19 02:57:56;;;;;;;0.10;0.10;;;11.80;99.90;;;;;;5056508;28;20021;-75
2023/06/19 03:03:13;;;;;;;0.35;0.35;;;11.70;99.90;;;;;;4189692;26;20043;-76
2023/06/19 03:05:39;;;;;;;0.13;0.13;;;11.70;99.90;;;;;;5069132;28;20521;-78
2023/06/19 03:08:28;;;;;;;0.10;0.10;;;11.70;99.90;;;;;;5071552;28;20054;-80
2023/06/19 03:10:55;;;;;;;0.10;0.10;;;11.60;99.90;;;;;;5072084;28;20039;-76
2023/06/19 03:13:27;;;;;;;0.10;0.10;;;11.60;99.90;;;;;;5073579;28;20086;-77
2023/06/19 03:16:01;;;;;;;0.10;0.10;;;11.70;99.90;;;;;;5093942;28;20017;-76
2023/06/19 03:18:51;;;;;;;0.10;0.10;;;11.70;99.90;;;;;;5094630;28;20024;-76
2023/06/19 03:21:43;;;;;;;0.10;0.10;;;11.60;99.90;;;;;;5079059;28;20036;-75
2023/06/19 03:24:10;;;;;;;0.10;0.10;;;14.80;99.90;;;;;;5069317;28;20024;-77
2023/06/19 03:26:36;;;;;;;0.10;0.10;;;11.60;99.90;;;;;;5065399;28;20021;-77
2023/06/19 03:29:04;;;;;;;0.10;0.10;;;11.50;99.90;;;;;;5073511;28;20236;-76
2023/06/19 03:31:51;;;;;;;0.10;0.10;;;11.50;99.90;;;;;;5067897;28;20749;-77
2023/06/19 03:34:21;;;;;;;0.10;0.10;;;13.20;99.90;;;;;;5068538;28;20035;-76
2023/06/19 03:36:48;;;;;;;0.10;0.10;;;11.40;99.90;;;;;;5049505;28;20032;-77
2023/06/19 03:39:14;;;;;;;0.10;0.10;;;11.40;99.90;;;;;;5067293;28;20111;-77
2023/06/19 03:41:41;;;;;;;0.10;0.10;;;11.40;99.90;;;;;;5068159;28;20059;-77
2023/06/19 03:44:08;;;;;;;0.20;0.20;;;11.40;99.90;;;;;;5066247;28;20021;-77
2023/06/19 03:46:34;;;;;;;0.10;0.10;;;11.30;99.90;;;;;;5066886;28;20012;-77
2023/06/19 03:49:02;;;;;;;0.17;0.17;;;11.40;99.90;;;;;;5067295;28;20076;-79
2023/06/19 03:51:50;;;;;;;0.10;0.10;;;11.50;99.90;;;;;;5070092;28;20025;-78
2023/06/19 03:54:16;;;;;;;2.47;2.38;;;11.50;99.90;;;;;;5096091;28;20032;-76
2023/06/19 03:56:42;;;;;;;0.15;0.15;;;11.60;99.90;;;;;;5088249;28;20051;-77
2023/06/19 03:59:07;;;;;;;0.10;0.10;;;11.60;99.90;;;;;;5058495;28;20017;-76
2023/06/19 04:01:37;;;;;;;0.20;0.20;;;11.90;99.90;;;;;;5075128;28;20045;-75
2023/06/19 04:04:12;;;;;;;0.10;0.10;;;11.70;99.90;;;;;;5092191;28;20044;-76
2023/06/19 04:06:44;;;;;;;0.10;0.10;;;11.70;99.90;;;;;;5074545;28;20028;-76
2023/06/19 04:09:13;;;;;;;0.10;0.10;;;11.80;99.90;;;;;;5093058;28;20032;-76
2023/06/19 04:11:39;;;;;;;0.17;0.17;;;12.00;99.90;;;;;;5093541;28;20032;-77
2023/06/19 04:14:05;;;;;;;0.20;0.20;;;12.00;99.90;;;;;;5093966;28;20036;-76
2023/06/19 04:16:30;;;;;;;0.20;0.20;;;12.10;99.90;;;;;;5093522;28;20076;-76
2023/06/19 04:19:00;;;;;;;0.10;0.10;;;12.10;99.90;;;;;;5077906;28;20032;-76
2023/06/19 04:21:46;;;;;;;0.10;0.10;;;12.10;99.90;;;;;;5089487;28;20021;-76
2023/06/19 04:24:18;;;;;;;0.20;0.20;;;12.10;99.90;;;;;;5093557;28;20035;-76
2023/06/19 04:26:56;;;;;;;0.10;0.10;;;12.20;99.90;;;;;;5071023;28;20020;-85
2023/06/19 04:29:31;;;;;;;0.20;0.20;;;12.30;99.90;;;;;;5080469;28;20040;-79
2023/06/19 04:31:59;;;;;;;0.10;0.10;;;12.40;99.90;;;;;;5066569;28;20033;-77
2023/06/19 04:34:26;;;;;;;1.27;1.27;;;12.40;99.90;;;;;;5049334;28;20663;-76
2023/06/19 04:36:52;;;;;;;0.13;0.13;;;12.40;99.90;;;;;;5066156;28;20743;-77
2023/06/19 04:39:18;;;;;;;0.30;0.30;;;12.50;99.90;;;;;;5047934;28;20361;-76
2023/06/19 04:41:44;;;;;;;0.10;0.10;;;12.50;99.90;;;;;;5065283;28;20036;-79
2023/06/19 04:44:14;;;;;;;0.20;0.20;;;12.80;99.90;;;;;;5064017;28;20035;-77
2023/06/19 04:46:41;;;;;;;0.17;0.17;;;12.50;99.90;;;;;;5064429;28;20647;-77
2023/06/19 04:49:08;;;;;;;0.20;0.20;;;12.70;99.90;;;;;;5061856;28;20028;-85
2023/06/19 04:51:34;;;;;;;0.10;0.10;;;12.70;99.90;;;;;;5061767;28;20021;-84
2023/06/19 04:54:00;;;;;;;0.20;0.20;;;12.80;99.90;;;;;;5060879;28;20037;-77
2023/06/19 04:56:28;;;;;;;0.28;0.28;;;12.90;99.90;;;;;;5063407;28;20343;-84
2023/06/19 04:58:57;;;;;;;0.10;0.10;;;13.00;99.90;;;;;;5062609;28;20045;-83
2023/06/19 05:01:27;;;;;;;0.35;0.35;;;13.10;99.90;;;;;;5062191;28;20056;-80
2023/06/19 05:03:54;;;;;;;0.20;0.20;;;13.20;99.90;;;;;;5062816;28;20020;-86
2023/06/19 05:06:21;;;;;;;0.17;0.17;;;13.30;99.90;;;;;;5064073;28;20510;-84
2023/06/19 05:08:47;;;;;;;0.10;0.10;;;14.80;99.90;;;;;;5045547;28;20067;-84
2023/06/19 05:11:13;;;;;;;0.20;0.20;;;13.50;99.90;;;;;;5061770;28;20025;-87
2023/06/19 05:13:39;;;;;;;0.20;0.20;;;13.70;99.90;;;;;;5063249;28;20701;-83
2023/06/19 05:16:04;;;;;;;0.10;0.10;;;13.90;99.90;;;;;;5044867;28;20017;-79
2023/06/19 05:18:30;;;;;;;0.10;0.10;;;14.00;99.90;;;;;;5063273;28;20303;-78
2023/06/19 05:20:56;;;;;;;0.22;0.22;;;16.50;99.90;;;;;;5063267;28;20021;-77
2023/06/19 05:23:22;;;;;;;0.30;0.30;;;14.20;99.90;;;;;;5043206;28;20685;-81
2023/06/19 05:25:48;;;;;;;0.20;0.20;;;14.30;99.90;;;;;;5062609;28;20032;-77
2023/06/19 05:28:16;;;;;;;0.40;0.40;;;14.40;99.90;;;;;;5043880;28;20039;-84
2023/06/19 05:30:42;;;;;;;1.45;1.45;;;14.50;99.90;;;;;;5045266;28;20037;-79
2023/06/19 05:33:09;;;;;;;0.20;0.20;;;14.60;99.90;;;;;;5063497;28;20071;-78
2023/06/19 05:35:36;;;;;;;0.20;0.20;;;14.50;99.90;;;;;;5062927;28;20020;-81
2023/06/19 05:38:02;;;;;;;0.20;0.20;;;14.60;99.90;;;;;;5066023;28;20086;-78
2023/06/19 05:40:28;;;;;;;0.40;0.40;;;14.70;99.90;;;;;;5061201;28;20025;-76
2023/06/19 05:42:55;;;;;;;0.10;0.10;;;14.90;99.90;;;;;;5043897;28;20044;-84
2023/06/19 05:45:21;;;;;;;0.10;0.10;;;15.00;99.90;;;;;;5062719;28;20438;-84
2023/06/19 05:47:47;;;;;;;0.28;0.28;;;15.00;99.90;;;;;;5060900;28;20021;-75
2023/06/19 05:50:13;;;;;;;1.40;1.30;;;15.20;99.90;;;;;;5042078;28;20306;-79
2023/06/19 05:52:42;;;;;;;0.10;0.10;;;15.20;99.90;;;;;;5061245;28;20024;-87
2023/06/19 05:55:09;;;;;;;0.75;0.75;;;15.40;99.90;;;;;;5061592;28;20009;-77
2023/06/19 05:57:38;;;;;;;0.10;0.10;;;15.40;99.90;;;;;;5045216;28;20072;-86
2023/06/19 06:00:05;;;;;;;0.10;0.10;;;15.60;99.90;;;;;;5064018;28;20017;-85
2023/06/19 06:02:31;;;;;;;0.20;0.20;;;15.70;99.90;;;;;;5044377;28;20431;-86
2023/06/19 06:04:57;;;;;;;3.33;3.13;;;15.80;99.90;;;;;;5060428;28;20077;-85
2023/06/19 06:07:23;;;;;;;0.20;0.20;;;16.00;99.90;;;;;;5061922;28;20017;-82
2023/06/19 06:09:48;;;;;;;0.75;0.73;;;16.10;99.90;;;;;;5062900;28;20051;-79
2023/06/19 06:12:14;;;;;;;0.20;0.20;;;16.20;99.90;;;;;;5060894;28;20040;-81
2023/06/19 06:14:43;;;;;;;0.13;0.13;;;16.30;99.90;;;;;;5062574;28;20349;-88
2023/06/19 06:17:09;;;;;;;0.20;0.20;;;16.40;99.90;;;;;;5061786;28;20510;-79
2023/06/19 06:19:36;;;;;;;3.75;1.75;;;16.60;99.90;;;;;;5062024;28;20023;-88
2023/06/19 06:22:03;;;;;;;0.28;0.28;;;16.60;99.90;;;;;;5060865;28;20214;-77
2023/06/19 06:24:28;;;;;;;0.13;0.13;;;16.70;99.90;;;;;;5061214;28;20479;-84
2023/06/19 06:26:54;;;;;;;0.20;0.20;;;16.80;99.90;;;;;;5058969;28;20029;-80
2023/06/19 06:29:20;;;;;;;0.43;0.43;;;16.80;99.90;;;;;;5058237;28;20368;-79
2023/06/19 06:31:47;;;;;;;0.20;0.20;;;16.90;99.90;;;;;;5041520;28;20067;-81
2023/06/19 06:34:13;;;;;;;0.25;0.25;;;16.60;99.90;;;;;;5059680;28;20074;-78
2023/06/19 06:36:39;;;;;;;0.20;0.20;;;17.10;99.90;;;;;;5060817;28;20586;-78
2023/06/19 06:39:05;;;;;;;8.90;5.25;;;17.20;99.90;;;;;;5041915;28;20071;-85
2023/06/19 06:41:32;;;;;;;0.20;0.20;;;17.40;99.90;;;;;;5061003;28;20104;-78
2023/06/19 06:43:57;;;;;;;2.42;2.33;;;17.50;99.90;;;;;;5059985;28;20016;-82
2023/06/19 06:46:23;;;;;;;0.43;0.43;;;17.50;99.90;;;;;;5059204;28;20351;-83
2023/06/19 06:48:53;;;;;;;0.10;0.10;;;17.70;99.90;;;;;;5058766;28;20074;-76
2023/06/19 06:51:18;;;;;;;0.10;0.10;;;17.20;99.90;;;;;;5059863;28;20028;-85
2023/06/19 06:53:44;;;;;;;0.10;0.10;;;18.00;99.90;;;;;;5059600;28;20024;-77
2023/06/19 06:56:10;;;;;;;5.65;5.45;;;18.00;99.90;;;;;;5040670;28;20036;-80
2023/06/19 06:58:36;;;;;;;0.10;0.10;;;18.00;99.90;;;;;;5059631;28;20312;-82
2023/06/19 07:01:02;;;;;;;0.95;0.95;;;18.20;99.90;;;;;;5059524;28;20308;-76
2023/06/19 07:03:31;;;;;;;0.30;0.30;;;18.30;99.90;;;;;;5042332;28;20442;-75
2023/06/19 07:05:57;;;;;;;0.90;0.90;;;18.40;99.90;;;;;;5061125;28;20027;-77
2023/06/19 07:08:23;;;;;;;0.47;0.47;;;18.60;99.90;;;;;;5062066;28;20499;-77
2023/06/19 07:10:49;;;;;;;0.20;0.20;;;18.80;99.90;;;;;;5043551;28;20048;-80
2023/06/19 07:13:15;;;;;;;0.15;0.15;;;18.70;99.90;;;;;;5065949;28;20029;-84
2023/06/19 07:15:41;;;;;;;0.20;0.20;;;18.90;99.90;;;;;;5050748;28;20013;-88
2023/06/19 07:18:07;;;;;;;0.10;0.10;;;19.00;99.90;;;;;;5079074;28;20050;-82
2023/06/19 07:20:32;;;;;;;0.50;0.50;;;20.10;99.90;;;;;;5065713;28;20076;-77
2023/06/19 07:23:01;;;;;;;0.30;0.30;;;19.40;99.90;;;;;;5070430;28;20103;-87
2023/06/19 07:25:27;;;;;;;0.10;0.10;;;19.50;99.90;;;;;;5060178;28;20099;-86
2023/06/19 07:27:53;;;;;;;0.70;0.68;;;19.70;99.90;;;;;;5071586;28;20063;-80
2023/06/19 07:30:19;;;;;;;1.38;1.13;;;19.90;99.90;;;;;;5051248;28;20044;-76
2023/06/19 07:32:45;;;;;;;0.85;0.85;;;20.00;99.90;;;;;;5064843;28;20025;-75
2023/06/19 07:35:11;;;;;;;0.40;0.40;;;18.50;99.90;;;;;;5064606;28;20087;-80
2023/06/19 07:37:38;;;;;;;0.57;0.57;;;20.20;99.90;;;;;;5067607;28;20028;-90
2023/06/19 07:40:04;;;;;;;0.20;0.20;;;20.40;99.90;;;;;;5066810;28;20016;-84
2023/06/19 07:42:30;;;;;;;0.20;0.20;;;20.60;99.90;;;;;;5064386;28;20024;-85
2023/06/19 07:44:56;;;;;;;0.30;0.30;;;20.60;99.90;;;;;;5068180;28;20139;-77
2023/06/19 07:47:22;;;;;;;0.13;0.13;;;20.80;99.90;;;;;;5070491;28;20047;-85
2023/06/19 07:49:48;;;;;;;0.20;0.20;;;21.00;99.90;;;;;;5073971;28;20188;-86
2023/06/19 07:52:14;;;;;;;0.40;0.40;;;21.20;99.90;;;;;;5072355;28;20194;-76
2023/06/19 07:54:54;;;;;;;0.20;0.20;;;21.40;99.90;;;;;;5068868;28;20031;-77
2023/06/19 07:57:20;;;;;;;0.10;0.10;;;21.30;99.90;;;;;;5073046;28;20731;-85
2023/06/19 07:59:53;;;;;;;0.13;0.13;;;21.50;99.90;;;;;;5074406;28;20013;-85
2023/06/19 08:02:20;;;;;;;0.20;0.20;;;21.60;99.90;;;;;;5046213;28;20047;-77
2023/06/19 08:04:46;;;;;;;0.10;0.10;;;21.50;99.50;;;;;;5064751;28;20024;-77
2023/06/19 08:07:12;;;;;;;0.30;0.30;;;21.70;99.90;;;;;;5044206;28;20052;-78
2023/06/19 08:09:38;;;;;;;0.20;0.20;;;22.00;99.90;;;;;;5046011;28;20051;-89
2023/06/19 08:12:05;;;;;;;0.10;0.10;;;22.10;99.70;;;;;;5064020;28;20032;-85
2023/06/19 08:14:31;;;;;;;0.43;0.43;;;22.10;99.50;;;;;;5065209;28;20055;-88
2023/06/19 08:17:02;;;;;;;0.15;0.15;;;22.20;99.10;;;;;;5064704;28;20048;-90
2023/06/19 08:19:28;;;;;;;0.43;0.43;;;24.00;98.80;;;;;;5065198;28;20099;-87
2023/06/19 08:21:56;;;;;;;0.10;0.10;;;22.60;97.90;;;;;;5064731;28;20115;-87
2023/06/19 08:24:21;;;;;;;0.10;0.10;;;22.80;97.30;;;;;;5064068;28;20051;-79
2023/06/19 08:26:50;;;;;;;0.20;0.20;;;22.80;97.30;;;;;;5065013;28;20040;-84
2023/06/19 08:29:17;;;;;;;0.50;0.50;;;23.00;96.40;;;;;;5065446;28;20013;-89
2023/06/19 08:31:43;;;;;;;0.10;0.10;;;23.10;94.90;;;;;;5062135;28;20025;-77
2023/06/19 08:34:09;;;;;;;0.22;0.22;;;24.50;95.40;;;;;;5045174;28;20082;-88
2023/06/19 08:36:36;;;;;;;0.20;0.20;;;23.50;94.40;;;;;;5064663;28;20685;-87
2023/06/19 08:39:02;;;;;;;0.25;0.25;;;23.60;95.20;;;;;;5046667;28;20031;-81
2023/06/19 08:41:28;;;;;;;0.10;0.10;;;23.60;94.00;;;;;;5063879;28;20043;-80
2023/06/19 08:43:58;;;;;;;0.35;0.35;;;23.60;93.70;;;;;;5047945;28;20028;-79
2023/06/19 08:46:23;;;;;;;0.65;0.45;;;23.60;94.70;;;;;;5063048;28;20024;-82
2023/06/19 08:48:54;;;;;;;0.20;0.20;;;23.70;94.40;;;;;;5064719;28;20081;-86
2023/06/19 08:51:20;;;;;;;1.15;1.05;;;20.80;94.60;;;;;;5064111;28;20099;-89
2023/06/19 08:53:54;;;;;;;0.50;0.50;;;23.80;94.10;;;;;;5065252;28;20051;-86
2023/06/19 08:56:20;;;;;;;0.32;0.32;;;24.00;95.00;;;;;;5044862;28;20054;-91
2023/06/19 08:58:46;;;;;;;2.08;0.98;;;24.10;94.30;;;;;;5063240;28;20025;-82
2023/06/19 09:01:17;;;;;;;0.68;0.68;;;24.20;92.80;;;;;;5063038;28;20041;-84
2023/06/19 09:03:44;;;;;;;1.63;1.52;;;24.30;93.10;;;;;;5063442;28;20809;-84
2023/06/19 09:06:10;;;;;;;0.20;0.20;;;24.50;92.80;;;;;;5062216;28;20696;-85
2023/06/19 09:08:37;;;;;;;0.38;0.38;;;24.60;92.50;;;;;;5064653;28;20082;-80
2023/06/19 09:11:04;;;;;;;0.20;0.20;;;24.80;91.30;;;;;;5062131;28;20017;-80
2023/06/19 09:13:31;;;;;;;3.10;1.33;;;25.00;91.40;;;;;;5062618;28;20099;-88
2023/06/19 09:16:07;;;;;;;0.20;0.20;;;25.10;90.40;;;;;;5061674;28;20048;-82
2023/06/19 09:18:45;;;;;;;0.15;0.15;;;25.20;87.60;;;;;;5061765;28;20088;-81
2023/06/19 09:21:18;;;;;;;0.30;0.30;;;25.10;83.10;;;;;;5061682;28;20093;-86
2023/06/19 09:23:46;;;;;;;0.10;0.10;;;25.30;85.00;;;;;;5063030;28;20028;-78
2023/06/19 09:26:18;;;;;;;0.10;0.10;;;25.20;83.90;;;;;;5027422;28;20054;-86
2023/06/19 09:28:45;;;;;;;0.10;0.10;;;25.30;85.40;;;;;;5064211;28;20361;-92
2023/06/19 09:31:13;;;;;;;0.28;0.22;;;25.50;85.00;;;;;;5032073;28;20050;-86
2023/06/19 09:33:40;;;;;;;1.65;0.65;;;25.70;84.10;;;;;;5072535;28;20016;-88
2023/06/19 09:36:06;;;;;;;1.00;0.50;;;25.80;82.00;;;;;;5070021;28;20035;-83
2023/06/19 09:38:34;;;;;;;0.20;0.20;;;25.90;82.90;;;;;;5057137;28;20027;-92
2023/06/19 09:41:02;;;;;;;0.63;0.63;;;26.00;82.40;;;;;;5076077;28;20103;-85
2023/06/19 09:43:37;;;;;;;0.40;0.40;;;26.30;81.20;;;;;;5064286;28;20028;-86
2023/06/19 09:46:04;;;;;;;1.25;0.98;;;26.50;79.00;;;;;;5068224;28;20078;-87
2023/06/19 09:48:32;;;;;;;0.10;0.10;;;26.80;77.90;;;;;;5069335;28;20012;-87
2023/06/19 09:51:21;;;;;;;0.10;0.10;;;27.00;76.90;;;;;;5032167;28;20012;-77
2023/06/19 09:53:48;;;;;;;0.30;0.30;;;27.10;78.50;;;;;;5062155;28;20017;-95
2023/06/19 09:56:16;;;;;;;1.48;0.88;;;27.40;75.20;;;;;;5045239;28;20339;-77
2023/06/19 09:58:45;;;;;;;0.10;0.10;;;27.40;75.60;;;;;;5044129;28;20170;-82
2023/06/19 10:01:12;;;;;;;0.10;0.10;;;27.40;74.70;;;;;;5063825;28;20028;-87
2023/06/19 10:03:40;;;;;;;0.30;0.30;;;27.60;74.20;;;;;;5071862;28;20105;-81
2023/06/19 10:06:06;;;;;;;0.40;0.40;;;27.60;71.50;;;;;;5071419;28;20040;-90
2023/06/19 10:08:45;;;;;;;0.10;0.10;;;27.60;72.60;;;;;;5072408;28;20482;-85
2023/06/19 10:11:16;;;;;;;0.45;0.45;;;27.70;70.00;;;;;;5066882;28;20023;-80
2023/06/19 10:13:43;;;;;;;0.28;0.28;;;27.80;70.20;;;;;;5063887;28;20028;-77
2023/06/19 10:16:20;;;;;;;0.70;0.70;;;27.80;64.90;;;;;;5061880;28;20495;-82
2023/06/19 10:18:47;;;;;;;0.10;0.10;;;27.80;65.20;;;;;;5045387;28;20123;-90
2023/06/19 10:21:20;;;;;;;0.10;0.10;;;28.00;67.10;;;;;;5046425;28;20024;-82
2023/06/19 10:23:57;;;;;;;1.15;0.43;;;28.10;64.20;;;;;;5044828;28;20040;-87
2023/06/19 10:26:35;;;;;;;0.10;0.10;;;28.50;66.10;;;;;;5045126;28;20624;-90
2023/06/19 10:29:13;;;;;;;0.10;0.10;;;28.80;62.30;;;;;;5044315;28;20019;-90
2023/06/19 10:31:39;;;;;;;1.77;1.75;;;28.90;63.50;;;;;;5062066;28;20675;-77
2023/06/19 10:34:06;;;;;;;0.10;0.10;;;29.20;61.50;;;;;;5062978;28;20027;-78
2023/06/19 10:36:35;;;;;;;0.10;0.10;;;29.10;58.80;;;;;;5044432;28;20028;-83
2023/06/19 10:39:01;;;;;;;0.10;0.10;;;28.90;59.70;;;;;;5041860;28;20021;-91
2023/06/19 10:41:34;;;;;;;0.28;0.22;;;28.90;59.60;;;;;;5060803;28;20040;-78
2023/06/19 10:44:12;;;;;;;0.10;0.10;;;28.80;59.40;;;;;;5043388;28;20485;-89
2023/06/19 10:46:41;;;;;;;0.68;0.68;;;28.90;59.50;;;;;;5062028;28;20059;-91
2023/06/19 10:49:10;;;;;;;0.10;0.10;;;27.00;54.40;;;;;;5043330;28;20012;-78
2023/06/19 10:51:41;;;;;;;0.10;0.10;;;29.30;53.10;;;;;;5043539;28;20608;-87
2023/06/19 10:54:10;;;;;;;0.30;0.20;;;29.40;54.30;;;;;;5061904;28;20008;-84
2023/06/19 10:56:40;;;;;;;10.02;3.25;;;29.60;54.60;;;;;;5063378;28;20459;-86
2023/06/19 10:59:17;;;;;;;0.10;0.10;;;29.60;54.70;;;;;;5061495;28;20017;-79
2023/06/19 11:01:46;;;;;;;0.20;0.20;;;29.80;54.30;;;;;;5060955;28;20045;-81
2023/06/19 11:04:14;;;;;;;0.43;0.43;;;29.80;54.10;;;;;;5063021;28;20651;-89
2023/06/19 11:06:42;;;;;;;1.10;0.50;;;29.60;56.80;;;;;;5062797;28;20028;-84
2023/06/19 11:09:10;;;;;;;0.17;0.15;;;29.60;56.20;;;;;;5061640;28;20025;-90
2023/06/19 11:11:44;;;;;;;0.10;0.10;;;29.60;56.90;;;;;;5061652;28;20100;-88
2023/06/19 11:14:12;;;;;;;0.30;0.30;;;29.70;58.10;;;;;;5061483;28;20017;-89
2023/06/19 11:16:41;;;;;;;0.55;0.40;;;30.10;56.60;;;;;;5043771;28;20020;-86
2023/06/19 11:19:08;;;;;;;0.10;0.10;;;30.00;56.90;;;;;;5061242;28;20013;-78
2023/06/19 11:21:38;;;;;;;0.45;0.38;;;30.20;56.30;;;;;;5041813;28;20036;-77
2023/06/19 11:24:10;;;;;;;0.00;0.00;;;30.70;56.20;;;;;;5060231;28;20040;-79
2023/06/19 11:26:43;;;;;;;0.10;0.10;;;31.20;56.20;;;;;;5064833;28;20066;-79
2023/06/19 11:29:29;;;;;;;0.32;0.32;;;31.40;53.50;;;;;;5063171;28;20013;-79
2023/06/19 11:32:07;;;;;;;0.30;0.30;;;31.50;54.50;;;;;;5062977;28;20069;-79
2023/06/19 11:34:36;;;;;;;0.10;0.10;;;31.70;53.60;;;;;;5061294;28;20607;-79
2023/06/19 11:37:22;;;;;;;0.20;0.20;;;31.90;53.00;;;;;;5065153;28;20027;-77
2023/06/19 11:39:50;;;;;;;2.40;1.02;;;32.40;51.40;;;;;;5063530;28;20051;-78
2023/06/19 11:42:21;;;;;;;0.30;0.30;;;32.80;50.80;;;;;;5061483;28;20032;-79
2023/06/19 11:44:57;;;;;;;0.50;0.50;;;33.10;50.70;;;;;;5048140;28;20281;-78
2023/06/19 11:47:23;;;;;;;0.10;0.10;;;33.60;50.50;;;;;;5067663;28;20120;-76
2023/06/19 11:49:50;;;;;;;0.65;0.40;;;33.30;51.20;;;;;;5066449;28;20020;-77
2023/06/19 11:52:16;;;;;;;0.75;0.52;;;33.90;52.20;;;;;;5034204;28;20610;-81
2023/06/19 11:54:44;;;;;;;0.60;0.55;;;33.70;54.90;;;;;;5064797;28;20024;-79
2023/06/19 11:57:13;;;;;;;0.20;0.20;;;33.80;55.90;;;;;;5069346;28;20024;-78
2023/06/19 11:59:42;;;;;;;0.70;0.63;;;34.20;54.00;;;;;;5047014;28;20025;-83
2023/06/19 12:02:09;;;;;;;0.38;0.38;;;34.60;54.00;;;;;;5059830;28;20049;-79
2023/06/19 12:04:35;;;;;;;1.27;0.60;;;34.90;54.80;;;;;;5040133;28;20037;-78
2023/06/19 12:07:03;;;;;;;0.43;0.38;;;35.30;53.80;;;;;;5041851;28;20769;-85
2023/06/19 12:09:30;;;;;;;0.90;0.50;;;35.70;52.30;;;;;;5061146;28;20096;-80
2023/06/19 12:11:56;;;;;;;0.88;0.40;;;35.90;51.60;;;;;;5064629;28;20024;-88
2023/06/19 12:14:24;;;;;;;0.30;0.30;;;35.90;51.30;;;;;;5065249;28;20020;-80
2023/06/19 12:16:50;;;;;;;0.10;0.10;;;36.10;51.70;;;;;;5072209;28;20259;-89
2023/06/19 12:19:16;;;;;;;1.10;0.85;;;35.90;51.00;;;;;;5071646;28;20502;-86
2023/06/19 12:21:42;;;;;;;0.75;0.75;;;35.80;52.40;;;;;;5063810;28;20032;-77
2023/06/19 12:24:09;;;;;;;1.35;0.73;;;36.00;51.50;;;;;;5044330;28;20032;-76
2023/06/19 12:26:39;;;;;;;0.98;0.40;;;35.90;47.90;;;;;;5062695;28;20112;-78
2023/06/19 12:29:07;;;;;;;0.30;0.30;;;35.70;47.60;;;;;;5063234;28;20029;-82
2023/06/19 12:31:34;;;;;;;0.30;0.30;;;37.30;48.90;;;;;;5062352;28;20526;-77
2023/06/19 12:34:04;;;;;;;0.65;0.45;;;35.80;47.10;;;;;;5044408;28;20029;-78
2023/06/19 12:36:32;;;;;;;1.23;1.13;;;35.90;48.00;;;;;;5046302;28;20012;-85
2023/06/19 12:39:05;;;;;;;0.30;0.30;;;32.40;45.40;;;;;;5064622;28;20040;-86
2023/06/19 12:41:31;;;;;;;0.10;0.10;;;35.40;49.10;;;;;;5063817;28;20116;-89
2023/06/19 12:43:57;;;;;;;0.10;0.10;;;35.70;49.50;;;;;;5045979;28;20151;-77
2023/06/19 12:46:22;;;;;;;0.20;0.20;;;35.80;46.30;;;;;;5063916;28;20020;-86
2023/06/19 12:48:50;;;;;;;0.75;0.50;;;35.80;46.80;;;;;;5062505;28;20024;-76
2023/06/19 12:51:17;;;;;;;0.40;0.40;;;35.30;46.60;;;;;;5063932;28;20142;-90
2023/06/19 12:53:44;;;;;;;0.20;0.20;;;35.40;47.20;;;;;;5064394;28;20617;-89
2023/06/19 12:56:12;;;;;;;0.40;0.40;;;35.60;48.40;;;;;;5064020;28;20092;-90
2023/06/19 12:58:38;;;;;;;0.30;0.30;;;36.20;49.20;;;;;;5063719;28;20028;-86
2023/06/19 13:01:04;;;;;;;0.57;0.50;;;36.40;47.60;;;;;;5063418;28;20035;-87
2023/06/19 13:03:29;;;;;;;0.68;0.68;;;36.60;47.20;;;;;;5063277;28;20078;-82